createdAt,value
2023-03-26T00:28:49.662Z,80.46
2023-03-26T00:57:11.061Z,81.22
2023-03-26T01:27:12.089Z,81.6
2023-03-26T02:24:31.034Z,79.49
2023-03-26T02:53:18.443Z,81.69
2023-03-26T03:22:08.851Z,78.28
2023-03-26T03:51:07.881Z,78.88
2023-03-26T04:20:08.162Z,81.1
2023-03-26T04:49:15.313Z,77.97
2023-03-26T05:17:52.261Z,78.28
2023-03-26T05:46:16.083Z,78.42
2023-03-26T06:44:28.742Z,78.33
2023-03-26T07:17:39.764Z,81.77
2023-03-26T07:46:20.268Z,86.59
2023-03-26T08:14:59.429Z,89.07
2023-03-26T08:43:46.468Z,88.78
2023-03-26T09:11:50.452Z,87.85
2023-03-26T09:40:53.856Z,86.06
2023-03-26T10:09:28.123Z,87.25
2023-03-26T10:37:55.833Z,74.99
2023-03-26T11:06:14.235Z,62.49
2023-03-26T11:34:39.599Z,59.15
2023-03-26T12:03:32.772Z,56.1
2023-03-26T12:32:08.706Z,57.3
2023-03-26T13:00:44.114Z,75.91
2023-03-26T13:29:17.257Z,73.92
2023-03-26T13:57:55.025Z,82.74
2023-03-26T14:26:35.283Z,84.83
2023-03-26T14:55:29.404Z,83.35
2023-03-26T15:23:53.092Z,82.06
2023-03-26T15:52:29.176Z,81.92
2023-03-26T16:21:30.721Z,82.13
2023-03-26T16:49:36.548Z,85.67
2023-03-26T17:18:13.175Z,87.59
2023-03-26T17:46:41.319Z,89.71
2023-03-26T18:15:26.273Z,89.17
2023-03-26T18:44:16.687Z,87.08
2023-03-26T19:12:44.086Z,85.48
2023-03-26T19:41:29.757Z,84.93
2023-03-26T20:09:56.988Z,86.26
2023-03-26T20:38:47.678Z,86.9
2023-03-26T21:07:24.401Z,89.02
2023-03-26T21:36:14.860Z,89.14
2023-03-26T22:04:58.159Z,90.74
2023-03-26T22:33:29.464Z,90.42
2023-03-26T23:02:23.313Z,93.83
2023-03-26T23:31:24.394Z,95.06
